sensor_id;sensor_type;location;lat;lon;timestamp;temperature;humidity
43541;DHT22;29549;40.386;-3.710;2023-04-24T00:02:04;18.00;51.30
43541;DHT22;29549;40.386;-3.710;2023-04-24T00:12:05;17.90;52.00
43541;DHT22;29549;40.386;-3.710;2023-04-24T00:22:07;17.80;52.30
43541;DHT22;29549;40.386;-3.710;2023-04-24T00:32:08;17.70;52.70
43541;DHT22;29549;40.386;-3.710;2023-04-24T00:42:09;17.60;53.20
43541;DHT22;29549;40.386;-3.710;2023-04-24T00:52:11;17.60;53.50
43541;DHT22;29549;40.386;-3.710;2023-04-24T01:02:13;17.50;53.40
43541;DHT22;29549;40.386;-3.710;2023-04-24T01:12:16;17.40;53.50
43541;DHT22;29549;40.386;-3.710;2023-04-24T01:22:18;17.30;53.80
43541;DHT22;29549;40.386;-3.710;2023-04-24T01:32:19;17.20;54.60
43541;DHT22;29549;40.386;-3.710;2023-04-24T01:42:21;17.10;54.90
43541;DHT22;29549;40.386;-3.710;2023-04-24T01:52:23;17.00;55.20
43541;DHT22;29549;40.386;-3.710;2023-04-24T02:02:24;17.00;55.50
43541;DHT22;29549;40.386;-3.710;2023-04-24T02:12:28;16.90;55.80
43541;DHT22;29549;40.386;-3.710;2023-04-24T02:22:29;16.80;56.00
43541;DHT22;29549;40.386;-3.710;2023-04-24T02:32:31;16.80;56.20
43541;DHT22;29549;40.386;-3.710;2023-04-24T02:42:33;16.70;56.40
43541;DHT22;29549;40.386;-3.710;2023-04-24T02:52:34;16.80;56.50
43541;DHT22;29549;40.386;-3.710;2023-04-24T03:02:36;16.70;57.10
43541;DHT22;29549;40.386;-3.710;2023-04-24T03:12:37;16.70;57.20
43541;DHT22;29549;40.386;-3.710;2023-04-24T03:22:38;16.60;57.50
43541;DHT22;29549;40.386;-3.710;2023-04-24T03:32:40;16.60;57.50
43541;DHT22;29549;40.386;-3.710;2023-04-24T03:42:41;16.50;57.60
43541;DHT22;29549;40.386;-3.710;2023-04-24T03:52:42;16.40;57.90
43541;DHT22;29549;40.386;-3.710;2023-04-24T04:02:44;16.30;58.40
43541;DHT22;29549;40.386;-3.710;2023-04-24T04:12:45;16.20;58.70
43541;DHT22;29549;40.386;-3.710;2023-04-24T04:22:47;16.30;58.50
43541;DHT22;29549;40.386;-3.710;2023-04-24T04:32:48;16.20;58.80
43541;DHT22;29549;40.386;-3.710;2023-04-24T04:42:49;16.00;59.10
43541;DHT22;29549;40.386;-3.710;2023-04-24T04:52:54;16.00;59.20
43541;DHT22;29549;40.386;-3.710;2023-04-24T05:02:55;15.90;59.40
43541;DHT22;29549;40.386;-3.710;2023-04-24T05:12:56;15.90;59.50
43541;DHT22;29549;40.386;-3.710;2023-04-24T05:22:58;15.80;59.70
43541;DHT22;29549;40.386;-3.710;2023-04-24T05:32:59;15.80;59.80
43541;DHT22;29549;40.386;-3.710;2023-04-24T05:43:00;15.80;59.70
43541;DHT22;29549;40.386;-3.710;2023-04-24T05:53:01;15.90;60.00
43541;DHT22;29549;40.386;-3.710;2023-04-24T06:03:03;15.80;60.40
43541;DHT22;29549;40.386;-3.710;2023-04-24T06:13:04;15.90;60.30
43541;DHT22;29549;40.386;-3.710;2023-04-24T06:23:05;16.00;60.50
43541;DHT22;29549;40.386;-3.710;2023-04-24T06:33:07;16.10;59.60
43541;DHT22;29549;40.386;-3.710;2023-04-24T06:43:08;16.30;59.30
43541;DHT22;29549;40.386;-3.710;2023-04-24T06:53:10;16.60;58.40
43541;DHT22;29549;40.386;-3.710;2023-04-24T07:03:13;16.80;58.30
43541;DHT22;29549;40.386;-3.710;2023-04-24T07:13:14;17.10;57.50
43541;DHT22;29549;40.386;-3.710;2023-04-24T07:23:17;17.60;55.70
43541;DHT22;29549;40.386;-3.710;2023-04-24T07:33:18;18.10;53.10
43541;DHT22;29549;40.386;-3.710;2023-04-24T07:43:20;18.60;52.00
43541;DHT22;29549;40.386;-3.710;2023-04-24T07:53:21;19.00;50.10
43541;DHT22;29549;40.386;-3.710;2023-04-24T08:03:23;19.40;49.60
43541;DHT22;29549;40.386;-3.710;2023-04-24T08:13:25;19.70;47.70
43541;DHT22;29549;40.386;-3.710;2023-04-24T08:23:26;19.90;47.30
43541;DHT22;29549;40.386;-3.710;2023-04-24T08:33:27;20.00;46.80
43541;DHT22;29549;40.386;-3.710;2023-04-24T08:43:35;20.10;46.40
43541;DHT22;29549;40.386;-3.710;2023-04-24T08:53:38;20.30;46.00
43541;DHT22;29549;40.386;-3.710;2023-04-24T09:03:39;20.40;45.20
43541;DHT22;29549;40.386;-3.710;2023-04-24T09:13:41;20.60;45.00
43541;DHT22;29549;40.386;-3.710;2023-04-24T09:23:43;20.60;44.30
43541;DHT22;29549;40.386;-3.710;2023-04-24T09:43:55;21.00;43.70
43541;DHT22;29549;40.386;-3.710;2023-04-24T09:53:57;21.10;43.80
43541;DHT22;29549;40.386;-3.710;2023-04-24T10:03:58;21.20;43.70
43541;DHT22;29549;40.386;-3.710;2023-04-24T10:14:01;21.40;42.80
43541;DHT22;29549;40.386;-3.710;2023-04-24T10:24:02;21.50;42.70
43541;DHT22;29549;40.386;-3.710;2023-04-24T10:34:06;21.60;42.40
43541;DHT22;29549;40.386;-3.710;2023-04-24T10:44:10;21.80;41.50
43541;DHT22;29549;40.386;-3.710;2023-04-24T11:04:32;22.10;40.50
43541;DHT22;29549;40.386;-3.710;2023-04-24T11:24:59;22.60;39.90
43541;DHT22;29549;40.386;-3.710;2023-04-24T11:35:14;22.70;38.20
43541;DHT22;29549;40.386;-3.710;2023-04-24T11:45:24;22.80;39.20
43541;DHT22;29549;40.386;-3.710;2023-04-24T11:55:27;22.90;36.30
43541;DHT22;29549;40.386;-3.710;2023-04-24T12:05:29;22.90;36.80
43541;DHT22;29549;40.386;-3.710;2023-04-24T12:15:32;23.30;36.60
43541;DHT22;29549;40.386;-3.710;2023-04-24T12:25:34;23.30;35.60
43541;DHT22;29549;40.386;-3.710;2023-04-24T12:35:36;23.30;35.20
43541;DHT22;29549;40.386;-3.710;2023-04-24T12:45:37;23.50;35.70
43541;DHT22;29549;40.386;-3.710;2023-04-24T12:55:38;23.80;34.90
43541;DHT22;29549;40.386;-3.710;2023-04-24T13:05:41;23.90;34.70
43541;DHT22;29549;40.386;-3.710;2023-04-24T13:15:43;23.90;34.00
43541;DHT22;29549;40.386;-3.710;2023-04-24T13:25:44;24.00;34.00
43541;DHT22;29549;40.386;-3.710;2023-04-24T13:35:45;24.20;33.80
43541;DHT22;29549;40.386;-3.710;2023-04-24T13:45:47;24.40;32.80
43541;DHT22;29549;40.386;-3.710;2023-04-24T13:55:48;24.60;32.60
43541;DHT22;29549;40.386;-3.710;2023-04-24T14:05:50;24.80;32.50
43541;DHT22;29549;40.386;-3.710;2023-04-24T14:15:51;24.80;30.50
43541;DHT22;29549;40.386;-3.710;2023-04-24T14:25:53;25.00;30.40
43541;DHT22;29549;40.386;-3.710;2023-04-24T14:35:55;25.10;30.90
43541;DHT22;29549;40.386;-3.710;2023-04-24T14:45:56;25.20;30.30
43541;DHT22;29549;40.386;-3.710;2023-04-24T14:55:58;25.50;29.90
43541;DHT22;29549;40.386;-3.710;2023-04-24T15:05:59;25.60;29.90
43541;DHT22;29549;40.386;-3.710;2023-04-24T15:16:02;25.60;29.50
43541;DHT22;29549;40.386;-3.710;2023-04-24T15:26:03;25.60;29.30
43541;DHT22;29549;40.386;-3.710;2023-04-24T15:36:05;25.70;29.70
43541;DHT22;29549;40.386;-3.710;2023-04-24T15:46:06;25.80;29.30
43541;DHT22;29549;40.386;-3.710;2023-04-24T15:56:09;25.60;29.30
43541;DHT22;29549;40.386;-3.710;2023-04-24T16:06:10;25.70;29.40
43541;DHT22;29549;40.386;-3.710;2023-04-24T16:16:12;25.50;30.20
43541;DHT22;29549;40.386;-3.710;2023-04-24T16:26:13;25.50;30.10
43541;DHT22;29549;40.386;-3.710;2023-04-24T16:36:15;25.60;30.50
43541;DHT22;29549;40.386;-3.710;2023-04-24T16:46:17;25.80;30.30
43541;DHT22;29549;40.386;-3.710;2023-04-24T16:56:18;25.60;31.00
43541;DHT22;29549;40.386;-3.710;2023-04-24T17:06:20;25.30;30.90
43541;DHT22;29549;40.386;-3.710;2023-04-24T17:16:21;25.40;31.10
43541;DHT22;29549;40.386;-3.710;2023-04-24T17:26:23;25.40;31.30
43541;DHT22;29549;40.386;-3.710;2023-04-24T17:36:24;25.30;31.70
43541;DHT22;29549;40.386;-3.710;2023-04-24T17:46:26;25.20;31.70
43541;DHT22;29549;40.386;-3.710;2023-04-24T17:56:27;25.10;32.10
43541;DHT22;29549;40.386;-3.710;2023-04-24T18:06:29;25.10;31.90
43541;DHT22;29549;40.386;-3.710;2023-04-24T18:16:30;25.00;32.40
43541;DHT22;29549;40.386;-3.710;2023-04-24T18:26:31;24.90;32.50
43541;DHT22;29549;40.386;-3.710;2023-04-24T18:36:33;24.70;32.90
43541;DHT22;29549;40.386;-3.710;2023-04-24T18:46:34;24.60;33.00
43541;DHT22;29549;40.386;-3.710;2023-04-24T18:56:38;24.40;33.10
43541;DHT22;29549;40.386;-3.710;2023-04-24T19:06:40;24.20;33.00
43541;DHT22;29549;40.386;-3.710;2023-04-24T19:16:42;24.00;33.40
43541;DHT22;29549;40.386;-3.710;2023-04-24T19:26:43;23.70;33.90
43541;DHT22;29549;40.386;-3.710;2023-04-24T19:36:45;23.60;33.00
43541;DHT22;29549;40.386;-3.710;2023-04-24T19:46:46;23.40;33.20
43541;DHT22;29549;40.386;-3.710;2023-04-24T19:56:48;23.10;33.00
43541;DHT22;29549;40.386;-3.710;2023-04-24T20:06:49;22.90;33.60
43541;DHT22;29549;40.386;-3.710;2023-04-24T20:16:51;22.80;34.00
43541;DHT22;29549;40.386;-3.710;2023-04-24T20:26:54;22.70;34.70
43541;DHT22;29549;40.386;-3.710;2023-04-24T20:36:57;22.50;35.50
43541;DHT22;29549;40.386;-3.710;2023-04-24T20:46:59;22.30;36.00
43541;DHT22;29549;40.386;-3.710;2023-04-24T20:57:00;22.20;36.40
43541;DHT22;29549;40.386;-3.710;2023-04-24T21:07:02;22.20;36.70
43541;DHT22;29549;40.386;-3.710;2023-04-24T21:17:03;21.90;37.50
43541;DHT22;29549;40.386;-3.710;2023-04-24T21:27:05;21.70;38.10
43541;DHT22;29549;40.386;-3.710;2023-04-24T21:37:07;21.60;38.70
43541;DHT22;29549;40.386;-3.710;2023-04-24T21:47:09;21.50;39.60
43541;DHT22;29549;40.386;-3.710;2023-04-24T21:57:11;21.40;40.30
43541;DHT22;29549;40.386;-3.710;2023-04-24T22:07:13;21.30;40.80
43541;DHT22;29549;40.386;-3.710;2023-04-24T22:17:14;21.20;41.40
43541;DHT22;29549;40.386;-3.710;2023-04-24T22:27:17;21.20;42.20
43541;DHT22;29549;40.386;-3.710;2023-04-24T22:37:18;21.00;43.10
43541;DHT22;29549;40.386;-3.710;2023-04-24T22:47:20;20.90;43.90
43541;DHT22;29549;40.386;-3.710;2023-04-24T22:57:21;20.70;44.90
43541;DHT22;29549;40.386;-3.710;2023-04-24T23:07:22;20.70;45.60
43541;DHT22;29549;40.386;-3.710;2023-04-24T23:17:24;20.50;46.20
43541;DHT22;29549;40.386;-3.710;2023-04-24T23:27:25;20.40;47.00
43541;DHT22;29549;40.386;-3.710;2023-04-24T23:37:27;20.30;47.60
43541;DHT22;29549;40.386;-3.710;2023-04-24T23:47:28;20.20;48.00
43541;DHT22;29549;40.386;-3.710;2023-04-24T23:57:30;20.20;48.40
